sensor_id;sensor_type;location;lat;lon;timestamp;P1;durP1;ratioP1;P2;durP2;ratioP2
65375;SDS011;51976;47.332;9.404;2023-12-20T00:00:55;7.63;;;4.68;;
65375;SDS011;51976;47.332;9.404;2023-12-20T00:03:20;8.98;;;4.32;;
65375;SDS011;51976;47.332;9.404;2023-12-20T00:05:46;6.30;;;4.43;;
65375;SDS011;51976;47.332;9.404;2023-12-20T00:08:12;9.70;;;5.13;;
65375;SDS011;51976;47.332;9.404;2023-12-20T00:10:37;6.28;;;4.13;;
65375;SDS011;51976;47.332;9.404;2023-12-20T00:13:03;6.55;;;4.38;;
65375;SDS011;51976;47.332;9.404;2023-12-20T00:15:28;6.60;;;4.68;;
65375;SDS011;51976;47.332;9.404;2023-12-20T00:17:54;8.30;;;5.07;;
65375;SDS011;51976;47.332;9.404;2023-12-20T00:20:19;7.35;;;5.05;;
65375;SDS011;51976;47.332;9.404;2023-12-20T00:22:44;8.77;;;5.18;;
65375;SDS011;51976;47.332;9.404;2023-12-20T00:25:10;7.85;;;5.05;;
65375;SDS011;51976;47.332;9.404;2023-12-20T00:27:35;6.80;;;4.30;;
65375;SDS011;51976;47.332;9.404;2023-12-20T00:30:00;7.13;;;4.47;;
65375;SDS011;51976;47.332;9.404;2023-12-20T00:32:26;8.52;;;4.53;;
65375;SDS011;51976;47.332;9.404;2023-12-20T00:34:51;7.88;;;5.00;;
65375;SDS011;51976;47.332;9.404;2023-12-20T00:37:16;6.97;;;4.85;;
65375;SDS011;51976;47.332;9.404;2023-12-20T00:39:42;6.93;;;4.88;;
65375;SDS011;51976;47.332;9.404;2023-12-20T00:42:07;8.30;;;4.93;;
65375;SDS011;51976;47.332;9.404;2023-12-20T00:44:33;8.70;;;4.50;;
65375;SDS011;51976;47.332;9.404;2023-12-20T00:46:58;7.60;;;4.30;;
65375;SDS011;51976;47.332;9.404;2023-12-20T00:49:23;4.88;;;3.50;;
65375;SDS011;51976;47.332;9.404;2023-12-20T00:51:49;5.30;;;3.95;;
65375;SDS011;51976;47.332;9.404;2023-12-20T00:54:15;4.97;;;3.65;;
65375;SDS011;51976;47.332;9.404;2023-12-20T00:56:41;8.73;;;4.35;;
65375;SDS011;51976;47.332;9.404;2023-12-20T00:59:06;9.00;;;4.22;;
65375;SDS011;51976;47.332;9.404;2023-12-20T01:01:32;9.05;;;4.30;;
65375;SDS011;51976;47.332;9.404;2023-12-20T01:03:58;7.43;;;4.45;;
65375;SDS011;51976;47.332;9.404;2023-12-20T01:06:23;6.03;;;4.22;;
65375;SDS011;51976;47.332;9.404;2023-12-20T01:08:49;7.53;;;5.30;;
65375;SDS011;51976;47.332;9.404;2023-12-20T01:11:14;7.55;;;4.28;;
65375;SDS011;51976;47.332;9.404;2023-12-20T01:13:39;6.63;;;4.80;;
65375;SDS011;51976;47.332;9.404;2023-12-20T01:16:05;7.97;;;4.60;;
65375;SDS011;51976;47.332;9.404;2023-12-20T01:18:30;5.50;;;3.95;;
65375;SDS011;51976;47.332;9.404;2023-12-20T01:20:56;5.63;;;3.92;;
65375;SDS011;51976;47.332;9.404;2023-12-20T01:23:21;7.10;;;4.03;;
65375;SDS011;51976;47.332;9.404;2023-12-20T01:25:47;7.25;;;3.90;;
65375;SDS011;51976;47.332;9.404;2023-12-20T01:28:13;5.50;;;3.78;;
65375;SDS011;51976;47.332;9.404;2023-12-20T01:30:38;7.35;;;4.18;;
65375;SDS011;51976;47.332;9.404;2023-12-20T01:33:04;6.97;;;3.85;;
65375;SDS011;51976;47.332;9.404;2023-12-20T01:35:29;5.93;;;3.95;;
65375;SDS011;51976;47.332;9.404;2023-12-20T01:37:55;6.70;;;3.85;;
65375;SDS011;51976;47.332;9.404;2023-12-20T01:40:23;5.70;;;3.70;;
65375;SDS011;51976;47.332;9.404;2023-12-20T01:42:57;5.78;;;3.53;;
65375;SDS011;51976;47.332;9.404;2023-12-20T01:45:24;5.38;;;3.40;;
65375;SDS011;51976;47.332;9.404;2023-12-20T01:47:49;5.13;;;3.63;;
65375;SDS011;51976;47.332;9.404;2023-12-20T01:50:15;5.00;;;3.42;;
65375;SDS011;51976;47.332;9.404;2023-12-20T01:52:41;5.50;;;3.92;;
65375;SDS011;51976;47.332;9.404;2023-12-20T01:55:08;4.45;;;2.90;;
65375;SDS011;51976;47.332;9.404;2023-12-20T01:57:39;16.52;;;8.32;;
65375;SDS011;51976;47.332;9.404;2023-12-20T02:00:05;9.13;;;5.18;;
65375;SDS011;51976;47.332;9.404;2023-12-20T02:02:34;6.03;;;3.78;;
65375;SDS011;51976;47.332;9.404;2023-12-20T02:05:04;6.72;;;4.00;;
65375;SDS011;51976;47.332;9.404;2023-12-20T02:07:30;6.82;;;4.45;;
65375;SDS011;51976;47.332;9.404;2023-12-20T02:09:56;6.43;;;4.50;;
65375;SDS011;51976;47.332;9.404;2023-12-20T02:12:21;6.88;;;4.68;;
65375;SDS011;51976;47.332;9.404;2023-12-20T02:14:47;6.25;;;3.90;;
65375;SDS011;51976;47.332;9.404;2023-12-20T02:17:13;6.43;;;3.63;;
65375;SDS011;51976;47.332;9.404;2023-12-20T02:19:38;4.53;;;3.15;;
65375;SDS011;51976;47.332;9.404;2023-12-20T02:22:07;6.85;;;4.05;;
65375;SDS011;51976;47.332;9.404;2023-12-20T02:24:33;5.65;;;3.83;;
65375;SDS011;51976;47.332;9.404;2023-12-20T02:26:59;6.30;;;4.15;;
65375;SDS011;51976;47.332;9.404;2023-12-20T02:29:24;5.97;;;4.03;;
65375;SDS011;51976;47.332;9.404;2023-12-20T02:31:50;6.35;;;3.58;;
65375;SDS011;51976;47.332;9.404;2023-12-20T02:34:15;7.32;;;3.72;;
65375;SDS011;51976;47.332;9.404;2023-12-20T02:36:41;5.47;;;3.65;;
65375;SDS011;51976;47.332;9.404;2023-12-20T02:39:06;6.45;;;3.50;;
65375;SDS011;51976;47.332;9.404;2023-12-20T02:41:32;7.35;;;3.90;;
65375;SDS011;51976;47.332;9.404;2023-12-20T02:43:57;7.00;;;3.08;;
65375;SDS011;51976;47.332;9.404;2023-12-20T02:46:22;4.95;;;3.10;;
65375;SDS011;51976;47.332;9.404;2023-12-20T02:48:48;4.40;;;2.55;;
65375;SDS011;51976;47.332;9.404;2023-12-20T02:51:13;3.40;;;2.20;;
65375;SDS011;51976;47.332;9.404;2023-12-20T02:53:38;3.33;;;1.30;;
65375;SDS011;51976;47.332;9.404;2023-12-20T02:56:04;3.20;;;1.38;;
65375;SDS011;51976;47.332;9.404;2023-12-20T02:58:29;1.10;;;0.80;;
65375;SDS011;51976;47.332;9.404;2023-12-20T03:00:55;1.60;;;0.70;;
65375;SDS011;51976;47.332;9.404;2023-12-20T03:03:20;2.03;;;0.80;;
65375;SDS011;51976;47.332;9.404;2023-12-20T03:05:46;0.93;;;0.55;;
65375;SDS011;51976;47.332;9.404;2023-12-20T03:08:11;1.83;;;0.77;;
65375;SDS011;51976;47.332;9.404;2023-12-20T03:10:37;2.42;;;0.82;;
65375;SDS011;51976;47.332;9.404;2023-12-20T03:13:02;1.00;;;0.60;;
65375;SDS011;51976;47.332;9.404;2023-12-20T03:15:27;1.27;;;0.80;;
65375;SDS011;51976;47.332;9.404;2023-12-20T03:17:53;1.08;;;0.70;;
65375;SDS011;51976;47.332;9.404;2023-12-20T03:20:18;1.05;;;0.50;;
65375;SDS011;51976;47.332;9.404;2023-12-20T03:22:43;1.35;;;0.52;;
65375;SDS011;51976;47.332;9.404;2023-12-20T03:25:09;1.05;;;0.65;;
65375;SDS011;51976;47.332;9.404;2023-12-20T03:27:36;1.00;;;0.70;;
65375;SDS011;51976;47.332;9.404;2023-12-20T03:30:03;1.95;;;0.80;;
65375;SDS011;51976;47.332;9.404;2023-12-20T03:32:29;1.15;;;0.70;;
65375;SDS011;51976;47.332;9.404;2023-12-20T03:34:55;1.08;;;0.50;;
65375;SDS011;51976;47.332;9.404;2023-12-20T03:37:21;1.20;;;0.60;;
65375;SDS011;51976;47.332;9.404;2023-12-20T03:39:47;1.23;;;0.63;;
65375;SDS011;51976;47.332;9.404;2023-12-20T03:42:12;0.90;;;0.50;;
65375;SDS011;51976;47.332;9.404;2023-12-20T03:44:40;0.68;;;0.45;;
65375;SDS011;51976;47.332;9.404;2023-12-20T03:47:06;1.20;;;0.60;;
65375;SDS011;51976;47.332;9.404;2023-12-20T03:49:32;1.25;;;0.65;;
65375;SDS011;51976;47.332;9.404;2023-12-20T03:51:57;1.08;;;0.70;;
65375;SDS011;51976;47.332;9.404;2023-12-20T03:54:22;2.67;;;0.90;;
65375;SDS011;51976;47.332;9.404;2023-12-20T03:56:48;2.40;;;1.13;;
65375;SDS011;51976;47.332;9.404;2023-12-20T03:59:13;1.90;;;0.95;;
65375;SDS011;51976;47.332;9.404;2023-12-20T04:01:42;1.85;;;1.00;;
65375;SDS011;51976;47.332;9.404;2023-12-20T04:04:09;2.80;;;1.45;;
65375;SDS011;51976;47.332;9.404;2023-12-20T04:06:35;1.80;;;1.10;;
65375;SDS011;51976;47.332;9.404;2023-12-20T04:09:00;1.92;;;1.20;;
65375;SDS011;51976;47.332;9.404;2023-12-20T04:11:25;2.60;;;1.25;;
65375;SDS011;51976;47.332;9.404;2023-12-20T04:13:51;3.33;;;1.50;;
65375;SDS011;51976;47.332;9.404;2023-12-20T04:16:16;2.72;;;1.60;;
65375;SDS011;51976;47.332;9.404;2023-12-20T04:18:42;3.17;;;1.55;;
65375;SDS011;51976;47.332;9.404;2023-12-20T04:21:07;2.97;;;1.60;;
65375;SDS011;51976;47.332;9.404;2023-12-20T04:23:32;4.47;;;1.92;;
65375;SDS011;51976;47.332;9.404;2023-12-20T04:25:58;3.20;;;1.58;;
65375;SDS011;51976;47.332;9.404;2023-12-20T04:28:23;3.15;;;1.35;;
65375;SDS011;51976;47.332;9.404;2023-12-20T04:30:49;3.10;;;1.33;;
65375;SDS011;51976;47.332;9.404;2023-12-20T04:33:14;3.17;;;1.50;;
65375;SDS011;51976;47.332;9.404;2023-12-20T04:35:39;3.15;;;1.85;;
65375;SDS011;51976;47.332;9.404;2023-12-20T04:38:06;2.33;;;1.10;;
65375;SDS011;51976;47.332;9.404;2023-12-20T04:40:31;2.65;;;1.38;;
65375;SDS011;51976;47.332;9.404;2023-12-20T04:42:57;1.95;;;1.08;;
65375;SDS011;51976;47.332;9.404;2023-12-20T04:45:22;3.38;;;1.05;;
65375;SDS011;51976;47.332;9.404;2023-12-20T04:47:49;2.15;;;1.08;;
65375;SDS011;51976;47.332;9.404;2023-12-20T04:50:15;1.50;;;0.77;;
65375;SDS011;51976;47.332;9.404;2023-12-20T04:52:41;0.90;;;0.50;;
65375;SDS011;51976;47.332;9.404;2023-12-20T04:55:07;2.38;;;0.80;;
65375;SDS011;51976;47.332;9.404;2023-12-20T04:57:33;1.27;;;0.70;;
65375;SDS011;51976;47.332;9.404;2023-12-20T04:59:59;2.05;;;0.73;;
65375;SDS011;51976;47.332;9.404;2023-12-20T05:02:24;0.90;;;0.60;;
65375;SDS011;51976;47.332;9.404;2023-12-20T05:04:50;1.13;;;0.80;;
65375;SDS011;51976;47.332;9.404;2023-12-20T05:07:15;1.58;;;1.08;;
65375;SDS011;51976;47.332;9.404;2023-12-20T05:09:41;2.13;;;1.38;;
65375;SDS011;51976;47.332;9.404;2023-12-20T05:12:06;1.63;;;1.20;;
65375;SDS011;51976;47.332;9.404;2023-12-20T05:14:32;1.60;;;1.00;;
65375;SDS011;51976;47.332;9.404;2023-12-20T05:16:57;1.77;;;1.20;;
65375;SDS011;51976;47.332;9.404;2023-12-20T05:19:23;2.17;;;1.30;;
65375;SDS011;51976;47.332;9.404;2023-12-20T05:21:49;2.60;;;1.83;;
65375;SDS011;51976;47.332;9.404;2023-12-20T05:24:14;2.00;;;1.38;;
65375;SDS011;51976;47.332;9.404;2023-12-20T05:26:40;4.68;;;1.60;;
65375;SDS011;51976;47.332;9.404;2023-12-20T05:29:05;4.20;;;1.55;;
65375;SDS011;51976;47.332;9.404;2023-12-20T05:31:31;2.17;;;1.40;;
65375;SDS011;51976;47.332;9.404;2023-12-20T05:33:56;1.80;;;1.20;;
65375;SDS011;51976;47.332;9.404;2023-12-20T05:36:22;2.08;;;1.10;;
65375;SDS011;51976;47.332;9.404;2023-12-20T05:38:47;1.70;;;1.10;;
65375;SDS011;51976;47.332;9.404;2023-12-20T05:41:12;2.05;;;1.40;;
65375;SDS011;51976;47.332;9.404;2023-12-20T05:43:38;1.60;;;0.98;;
65375;SDS011;51976;47.332;9.404;2023-12-20T05:46:04;2.25;;;1.38;;
65375;SDS011;51976;47.332;9.404;2023-12-20T05:48:29;2.10;;;1.33;;
65375;SDS011;51976;47.332;9.404;2023-12-20T05:50:54;2.92;;;1.60;;
65375;SDS011;51976;47.332;9.404;2023-12-20T05:53:20;2.63;;;1.50;;
65375;SDS011;51976;47.332;9.404;2023-12-20T05:55:45;3.55;;;1.50;;
65375;SDS011;51976;47.332;9.404;2023-12-20T05:58:11;1.85;;;1.42;;
65375;SDS011;51976;47.332;9.404;2023-12-20T06:00:36;2.97;;;1.40;;
65375;SDS011;51976;47.332;9.404;2023-12-20T06:03:02;3.42;;;1.30;;
65375;SDS011;51976;47.332;9.404;2023-12-20T06:05:27;2.70;;;1.40;;
65375;SDS011;51976;47.332;9.404;2023-12-20T06:07:52;2.15;;;1.38;;
65375;SDS011;51976;47.332;9.404;2023-12-20T06:10:19;1.50;;;1.13;;
65375;SDS011;51976;47.332;9.404;2023-12-20T06:12:45;1.30;;;0.70;;
65375;SDS011;51976;47.332;9.404;2023-12-20T06:15:12;4.85;;;2.85;;
65375;SDS011;51976;47.332;9.404;2023-12-20T06:17:37;4.25;;;2.78;;
65375;SDS011;51976;47.332;9.404;2023-12-20T06:20:03;3.00;;;1.98;;
65375;SDS011;51976;47.332;9.404;2023-12-20T06:22:32;2.10;;;1.15;;
65375;SDS011;51976;47.332;9.404;2023-12-20T06:24:58;2.22;;;1.13;;
65375;SDS011;51976;47.332;9.404;2023-12-20T06:27:23;1.70;;;0.98;;
65375;SDS011;51976;47.332;9.404;2023-12-20T06:29:49;1.83;;;0.98;;
65375;SDS011;51976;47.332;9.404;2023-12-20T06:32:14;3.35;;;0.88;;
65375;SDS011;51976;47.332;9.404;2023-12-20T06:34:40;2.22;;;1.17;;
65375;SDS011;51976;47.332;9.404;2023-12-20T06:37:05;2.75;;;1.20;;
65375;SDS011;51976;47.332;9.404;2023-12-20T06:39:30;1.55;;;0.52;;
65375;SDS011;51976;47.332;9.404;2023-12-20T06:41:56;2.13;;;0.65;;
65375;SDS011;51976;47.332;9.404;2023-12-20T06:44:22;3.38;;;1.10;;
65375;SDS011;51976;47.332;9.404;2023-12-20T06:46:47;4.13;;;1.90;;
65375;SDS011;51976;47.332;9.404;2023-12-20T06:49:12;3.83;;;1.98;;
65375;SDS011;51976;47.332;9.404;2023-12-20T06:51:38;2.90;;;1.48;;
65375;SDS011;51976;47.332;9.404;2023-12-20T06:54:03;3.75;;;1.50;;
65375;SDS011;51976;47.332;9.404;2023-12-20T06:56:29;3.42;;;1.10;;
65375;SDS011;51976;47.332;9.404;2023-12-20T06:58:54;1.67;;;0.70;;
65375;SDS011;51976;47.332;9.404;2023-12-20T07:01:19;3.38;;;0.55;;
65375;SDS011;51976;47.332;9.404;2023-12-20T07:03:45;0.82;;;0.38;;
65375;SDS011;51976;47.332;9.404;2023-12-20T07:06:10;0.60;;;0.30;;
65375;SDS011;51976;47.332;9.404;2023-12-20T07:08:36;2.78;;;0.35;;
65375;SDS011;51976;47.332;9.404;2023-12-20T07:11:01;1.33;;;0.57;;
65375;SDS011;51976;47.332;9.404;2023-12-20T07:13:27;1.75;;;0.57;;
65375;SDS011;51976;47.332;9.404;2023-12-20T07:15:52;0.77;;;0.38;;
65375;SDS011;51976;47.332;9.404;2023-12-20T07:18:18;0.65;;;0.32;;
65375;SDS011;51976;47.332;9.404;2023-12-20T07:20:43;0.80;;;0.20;;
65375;SDS011;51976;47.332;9.404;2023-12-20T07:23:09;0.43;;;0.20;;
65375;SDS011;51976;47.332;9.404;2023-12-20T07:25:34;0.50;;;0.20;;
65375;SDS011;51976;47.332;9.404;2023-12-20T07:28:00;1.35;;;0.10;;
65375;SDS011;51976;47.332;9.404;2023-12-20T07:30:25;1.60;;;0.60;;
65375;SDS011;51976;47.332;9.404;2023-12-20T07:32:51;2.95;;;1.10;;
65375;SDS011;51976;47.332;9.404;2023-12-20T07:35:18;2.42;;;1.20;;
65375;SDS011;51976;47.332;9.404;2023-12-20T07:37:44;1.80;;;1.20;;
65375;SDS011;51976;47.332;9.404;2023-12-20T07:40:11;5.45;;;1.60;;
65375;SDS011;51976;47.332;9.404;2023-12-20T07:42:37;1.77;;;1.00;;
65375;SDS011;51976;47.332;9.404;2023-12-20T07:45:03;1.85;;;0.90;;
65375;SDS011;51976;47.332;9.404;2023-12-20T07:47:28;1.75;;;0.98;;
65375;SDS011;51976;47.332;9.404;2023-12-20T07:49:54;2.08;;;0.85;;
65375;SDS011;51976;47.332;9.404;2023-12-20T07:52:19;3.75;;;1.80;;
65375;SDS011;51976;47.332;9.404;2023-12-20T07:54:46;4.32;;;1.92;;
65375;SDS011;51976;47.332;9.404;2023-12-20T07:57:31;2.22;;;1.25;;
65375;SDS011;51976;47.332;9.404;2023-12-20T07:59:56;3.25;;;1.60;;
65375;SDS011;51976;47.332;9.404;2023-12-20T08:02:21;2.08;;;0.95;;
65375;SDS011;51976;47.332;9.404;2023-12-20T08:04:47;8.40;;;2.70;;
65375;SDS011;51976;47.332;9.404;2023-12-20T08:07:12;6.32;;;1.98;;
65375;SDS011;51976;47.332;9.404;2023-12-20T08:09:38;4.75;;;2.42;;
65375;SDS011;51976;47.332;9.404;2023-12-20T08:12:03;3.60;;;1.05;;
65375;SDS011;51976;47.332;9.404;2023-12-20T08:14:29;1.05;;;0.50;;
65375;SDS011;51976;47.332;9.404;2023-12-20T08:16:54;2.30;;;1.20;;
65375;SDS011;51976;47.332;9.404;2023-12-20T08:19:20;2.30;;;1.13;;
65375;SDS011;51976;47.332;9.404;2023-12-20T08:21:45;4.25;;;1.92;;
65375;SDS011;51976;47.332;9.404;2023-12-20T08:24:11;4.68;;;2.70;;
65375;SDS011;51976;47.332;9.404;2023-12-20T08:26:36;5.78;;;2.45;;
65375;SDS011;51976;47.332;9.404;2023-12-20T08:29:02;6.75;;;3.42;;
65375;SDS011;51976;47.332;9.404;2023-12-20T08:31:27;6.30;;;2.33;;
65375;SDS011;51976;47.332;9.404;2023-12-20T08:33:53;8.20;;;4.32;;
65375;SDS011;51976;47.332;9.404;2023-12-20T08:36:19;34.40;;;17.10;;
65375;SDS011;51976;47.332;9.404;2023-12-20T08:38:46;12.35;;;5.65;;
65375;SDS011;51976;47.332;9.404;2023-12-20T08:41:13;5.30;;;2.10;;
65375;SDS011;51976;47.332;9.404;2023-12-20T08:43:39;12.20;;;5.35;;
65375;SDS011;51976;47.332;9.404;2023-12-20T08:46:05;8.50;;;3.78;;
65375;SDS011;51976;47.332;9.404;2023-12-20T08:48:31;6.30;;;2.72;;
65375;SDS011;51976;47.332;9.404;2023-12-20T08:50:56;11.25;;;4.80;;
65375;SDS011;51976;47.332;9.404;2023-12-20T08:53:21;4.07;;;1.98;;
65375;SDS011;51976;47.332;9.404;2023-12-20T08:55:47;8.80;;;3.63;;
65375;SDS011;51976;47.332;9.404;2023-12-20T08:58:13;5.45;;;2.80;;
65375;SDS011;51976;47.332;9.404;2023-12-20T09:00:39;7.53;;;3.60;;
65375;SDS011;51976;47.332;9.404;2023-12-20T09:03:05;5.22;;;2.30;;
65375;SDS011;51976;47.332;9.404;2023-12-20T09:05:30;9.65;;;4.75;;
65375;SDS011;51976;47.332;9.404;2023-12-20T09:07:56;12.00;;;4.97;;
65375;SDS011;51976;47.332;9.404;2023-12-20T09:10:22;8.80;;;4.00;;
65375;SDS011;51976;47.332;9.404;2023-12-20T09:12:49;10.88;;;4.57;;
65375;SDS011;51976;47.332;9.404;2023-12-20T09:15:16;7.28;;;3.55;;
65375;SDS011;51976;47.332;9.404;2023-12-20T09:17:42;3.67;;;2.00;;
65375;SDS011;51976;47.332;9.404;2023-12-20T09:20:08;4.57;;;1.60;;
65375;SDS011;51976;47.332;9.404;2023-12-20T09:22:34;6.53;;;3.53;;
65375;SDS011;51976;47.332;9.404;2023-12-20T09:25:00;7.15;;;3.13;;
65375;SDS011;51976;47.332;9.404;2023-12-20T09:27:27;5.47;;;3.40;;
65375;SDS011;51976;47.332;9.404;2023-12-20T09:29:54;5.20;;;1.92;;
65375;SDS011;51976;47.332;9.404;2023-12-20T09:32:20;5.40;;;1.92;;
65375;SDS011;51976;47.332;9.404;2023-12-20T09:34:47;3.53;;;1.73;;
65375;SDS011;51976;47.332;9.404;2023-12-20T09:37:13;0.35;;;0.17;;
65375;SDS011;51976;47.332;9.404;2023-12-20T09:39:38;1.00;;;0.20;;
65375;SDS011;51976;47.332;9.404;2023-12-20T09:42:04;5.28;;;0.90;;
65375;SDS011;51976;47.332;9.404;2023-12-20T09:44:31;0.63;;;0.30;;
65375;SDS011;51976;47.332;9.404;2023-12-20T09:46:58;0.98;;;0.20;;
65375;SDS011;51976;47.332;9.404;2023-12-20T09:49:27;0.20;;;0.10;;
65375;SDS011;51976;47.332;9.404;2023-12-20T09:51:53;1.90;;;0.50;;
65375;SDS011;51976;47.332;9.404;2023-12-20T09:54:19;1.92;;;0.77;;
65375;SDS011;51976;47.332;9.404;2023-12-20T09:56:47;1.77;;;0.40;;
65375;SDS011;51976;47.332;9.404;2023-12-20T09:59:12;1.17;;;0.50;;
65375;SDS011;51976;47.332;9.404;2023-12-20T10:01:40;1.80;;;0.52;;
65375;SDS011;51976;47.332;9.404;2023-12-20T10:04:07;1.08;;;0.30;;
65375;SDS011;51976;47.332;9.404;2023-12-20T10:06:36;0.50;;;0.22;;
65375;SDS011;51976;47.332;9.404;2023-12-20T10:09:02;0.80;;;0.20;;
65375;SDS011;51976;47.332;9.404;2023-12-20T10:11:31;1.10;;;0.40;;
65375;SDS011;51976;47.332;9.404;2023-12-20T10:13:59;0.90;;;0.30;;
65375;SDS011;51976;47.332;9.404;2023-12-20T10:16:27;0.20;;;0.00;;
65375;SDS011;51976;47.332;9.404;2023-12-20T10:18:55;0.25;;;0.10;;
65375;SDS011;51976;47.332;9.404;2023-12-20T10:21:24;1.15;;;0.30;;
65375;SDS011;51976;47.332;9.404;2023-12-20T10:23:56;0.40;;;0.17;;
65375;SDS011;51976;47.332;9.404;2023-12-20T10:26:23;2.55;;;0.10;;
65375;SDS011;51976;47.332;9.404;2023-12-20T10:28:53;0.52;;;0.10;;
65375;SDS011;51976;47.332;9.404;2023-12-20T10:31:31;0.80;;;0.22;;
65375;SDS011;51976;47.332;9.404;2023-12-20T10:33:58;0.65;;;0.20;;
65375;SDS011;51976;47.332;9.404;2023-12-20T10:36:25;0.40;;;0.10;;
65375;SDS011;51976;47.332;9.404;2023-12-20T10:38:55;1.20;;;0.50;;
65375;SDS011;51976;47.332;9.404;2023-12-20T10:41:26;0.43;;;0.28;;
65375;SDS011;51976;47.332;9.404;2023-12-20T10:43:59;0.80;;;0.30;;
65375;SDS011;51976;47.332;9.404;2023-12-20T10:46:26;0.40;;;0.10;;
65375;SDS011;51976;47.332;9.404;2023-12-20T10:48:54;0.88;;;0.20;;
65375;SDS011;51976;47.332;9.404;2023-12-20T10:51:20;0.43;;;0.20;;
65375;SDS011;51976;47.332;9.404;2023-12-20T10:53:47;0.57;;;0.20;;
65375;SDS011;51976;47.332;9.404;2023-12-20T10:56:15;0.30;;;0.20;;
65375;SDS011;51976;47.332;9.404;2023-12-20T10:58:43;0.30;;;0.13;;
65375;SDS011;51976;47.332;9.404;2023-12-20T11:01:09;0.43;;;0.20;;
65375;SDS011;51976;47.332;9.404;2023-12-20T11:03:37;0.30;;;0.10;;
65375;SDS011;51976;47.332;9.404;2023-12-20T11:06:09;0.38;;;0.17;;
65375;SDS011;51976;47.332;9.404;2023-12-20T11:08:51;0.52;;;0.10;;
65375;SDS011;51976;47.332;9.404;2023-12-20T11:11:51;0.10;;;0.10;;
65375;SDS011;51976;47.332;9.404;2023-12-20T11:14:38;0.32;;;0.08;;
65375;SDS011;51976;47.332;9.404;2023-12-20T11:17:13;0.30;;;0.20;;
65375;SDS011;51976;47.332;9.404;2023-12-20T11:20:06;0.82;;;0.10;;
65375;SDS011;51976;47.332;9.404;2023-12-20T11:22:30;0.43;;;0.25;;
65375;SDS011;51976;47.332;9.404;2023-12-20T11:25:06;0.68;;;0.20;;
65375;SDS011;51976;47.332;9.404;2023-12-20T11:27:34;0.90;;;0.30;;
65375;SDS011;51976;47.332;9.404;2023-12-20T11:30:00;0.65;;;0.30;;
65375;SDS011;51976;47.332;9.404;2023-12-20T11:32:31;0.28;;;0.13;;
65375;SDS011;51976;47.332;9.404;2023-12-20T11:35:00;0.63;;;0.30;;
65375;SDS011;51976;47.332;9.404;2023-12-20T11:37:41;2.40;;;0.80;;
65375;SDS011;51976;47.332;9.404;2023-12-20T11:40:12;1.00;;;0.60;;
65375;SDS011;51976;47.332;9.404;2023-12-20T11:42:40;3.20;;;0.63;;
65375;SDS011;51976;47.332;9.404;2023-12-20T11:45:25;3.65;;;1.85;;
65375;SDS011;51976;47.332;9.404;2023-12-20T11:47:51;8.23;;;4.32;;
65375;SDS011;51976;47.332;9.404;2023-12-20T11:50:18;5.50;;;2.58;;
65375;SDS011;51976;47.332;9.404;2023-12-20T11:52:45;6.13;;;3.55;;
65375;SDS011;51976;47.332;9.404;2023-12-20T11:55:10;6.97;;;3.00;;
65375;SDS011;51976;47.332;9.404;2023-12-20T11:57:36;7.28;;;3.40;;
65375;SDS011;51976;47.332;9.404;2023-12-20T12:00:03;7.35;;;3.17;;
65375;SDS011;51976;47.332;9.404;2023-12-20T12:02:28;7.10;;;3.83;;
65375;SDS011;51976;47.332;9.404;2023-12-20T12:04:54;8.68;;;4.10;;
65375;SDS011;51976;47.332;9.404;2023-12-20T12:07:21;4.60;;;2.53;;
65375;SDS011;51976;47.332;9.404;2023-12-20T12:09:47;2.92;;;1.40;;
65375;SDS011;51976;47.332;9.404;2023-12-20T12:12:12;3.72;;;1.58;;
65375;SDS011;51976;47.332;9.404;2023-12-20T12:14:38;8.63;;;3.20;;
65375;SDS011;51976;47.332;9.404;2023-12-20T12:17:09;7.50;;;2.97;;
65375;SDS011;51976;47.332;9.404;2023-12-20T12:19:35;5.68;;;2.75;;
65375;SDS011;51976;47.332;9.404;2023-12-20T12:22:05;3.03;;;2.00;;
65375;SDS011;51976;47.332;9.404;2023-12-20T12:27:05;2.17;;;1.25;;
65375;SDS011;51976;47.332;9.404;2023-12-20T12:29:31;3.17;;;1.30;;
65375;SDS011;51976;47.332;9.404;2023-12-20T12:31:56;2.05;;;1.17;;
65375;SDS011;51976;47.332;9.404;2023-12-20T12:34:22;1.13;;;0.50;;
65375;SDS011;51976;47.332;9.404;2023-12-20T12:36:48;0.25;;;0.15;;
65375;SDS011;51976;47.332;9.404;2023-12-20T12:39:15;0.30;;;0.10;;
65375;SDS011;51976;47.332;9.404;2023-12-20T12:41:42;0.43;;;0.30;;
65375;SDS011;51976;47.332;9.404;2023-12-20T12:44:08;0.70;;;0.30;;
65375;SDS011;51976;47.332;9.404;2023-12-20T12:46:33;0.93;;;0.47;;
65375;SDS011;51976;47.332;9.404;2023-12-20T12:48:59;2.65;;;0.30;;
65375;SDS011;51976;47.332;9.404;2023-12-20T12:51:25;0.28;;;0.10;;
65375;SDS011;51976;47.332;9.404;2023-12-20T12:53:50;0.40;;;0.30;;
65375;SDS011;51976;47.332;9.404;2023-12-20T12:56:16;0.28;;;0.20;;
65375;SDS011;51976;47.332;9.404;2023-12-20T12:58:42;0.68;;;0.40;;
65375;SDS011;51976;47.332;9.404;2023-12-20T13:01:08;1.67;;;0.40;;
65375;SDS011;51976;47.332;9.404;2023-12-20T13:03:34;3.95;;;0.43;;
65375;SDS011;51976;47.332;9.404;2023-12-20T13:06:00;1.08;;;0.40;;
65375;SDS011;51976;47.332;9.404;2023-12-20T13:08:25;0.63;;;0.30;;
65375;SDS011;51976;47.332;9.404;2023-12-20T13:10:51;2.55;;;1.17;;
65375;SDS011;51976;47.332;9.404;2023-12-20T13:13:16;2.05;;;1.35;;
65375;SDS011;51976;47.332;9.404;2023-12-20T13:15:42;1.73;;;0.77;;
65375;SDS011;51976;47.332;9.404;2023-12-20T13:18:07;0.90;;;0.50;;
65375;SDS011;51976;47.332;9.404;2023-12-20T13:20:32;2.50;;;0.88;;
65375;SDS011;51976;47.332;9.404;2023-12-20T13:22:58;1.63;;;0.60;;
65375;SDS011;51976;47.332;9.404;2023-12-20T13:25:24;1.58;;;0.63;;
65375;SDS011;51976;47.332;9.404;2023-12-20T13:27:50;1.40;;;0.75;;
65375;SDS011;51976;47.332;9.404;2023-12-20T13:30:16;1.92;;;1.00;;
65375;SDS011;51976;47.332;9.404;2023-12-20T13:32:42;1.35;;;0.82;;
65375;SDS011;51976;47.332;9.404;2023-12-20T13:35:07;1.27;;;0.70;;
65375;SDS011;51976;47.332;9.404;2023-12-20T13:37:33;1.35;;;0.90;;
65375;SDS011;51976;47.332;9.404;2023-12-20T13:39:59;0.77;;;0.50;;
65375;SDS011;51976;47.332;9.404;2023-12-20T13:42:26;1.73;;;0.75;;
65375;SDS011;51976;47.332;9.404;2023-12-20T13:44:52;2.60;;;1.27;;
65375;SDS011;51976;47.332;9.404;2023-12-20T13:47:18;1.38;;;0.77;;
65375;SDS011;51976;47.332;9.404;2023-12-20T13:49:44;0.80;;;0.50;;
65375;SDS011;51976;47.332;9.404;2023-12-20T13:52:10;2.70;;;0.60;;
65375;SDS011;51976;47.332;9.404;2023-12-20T13:54:36;1.33;;;0.57;;
65375;SDS011;51976;47.332;9.404;2023-12-20T13:57:02;1.05;;;0.70;;
65375;SDS011;51976;47.332;9.404;2023-12-20T13:59:28;1.73;;;1.08;;
65375;SDS011;51976;47.332;9.404;2023-12-20T14:01:53;1.35;;;1.00;;
65375;SDS011;51976;47.332;9.404;2023-12-20T14:04:19;1.95;;;1.02;;
65375;SDS011;51976;47.332;9.404;2023-12-20T14:06:46;2.28;;;1.25;;
65375;SDS011;51976;47.332;9.404;2023-12-20T14:09:12;2.08;;;1.13;;
65375;SDS011;51976;47.332;9.404;2023-12-20T14:11:37;1.60;;;1.10;;
65375;SDS011;51976;47.332;9.404;2023-12-20T14:14:06;2.30;;;1.05;;
65375;SDS011;51976;47.332;9.404;2023-12-20T14:16:32;1.63;;;1.13;;
65375;SDS011;51976;47.332;9.404;2023-12-20T14:19:01;1.35;;;0.90;;
65375;SDS011;51976;47.332;9.404;2023-12-20T14:21:28;1.30;;;0.98;;
65375;SDS011;51976;47.332;9.404;2023-12-20T14:23:53;1.52;;;0.80;;
65375;SDS011;51976;47.332;9.404;2023-12-20T14:26:19;1.80;;;1.08;;
65375;SDS011;51976;47.332;9.404;2023-12-20T14:28:44;2.35;;;0.93;;
65375;SDS011;51976;47.332;9.404;2023-12-20T14:31:10;2.08;;;1.17;;
65375;SDS011;51976;47.332;9.404;2023-12-20T14:33:35;2.58;;;1.40;;
65375;SDS011;51976;47.332;9.404;2023-12-20T14:36:02;2.03;;;1.23;;
65375;SDS011;51976;47.332;9.404;2023-12-20T14:38:30;5.07;;;2.33;;
65375;SDS011;51976;47.332;9.404;2023-12-20T14:40:58;4.70;;;2.25;;
65375;SDS011;51976;47.332;9.404;2023-12-20T14:43:23;2.42;;;1.55;;
65375;SDS011;51976;47.332;9.404;2023-12-20T14:45:51;1.80;;;1.13;;